Time;durP1;ratioP1;P1;durP2;ratioP2;P2;SDS_P1;SDS_P2;PMS_P1;PMS_P2;Temp;Humidity;BMP_temperature;BMP_pressure;BME280_temperature;BME280_humidity;BME280_pressure;Samples;Min_cycle;Max_cycle;Signal;HPM_P1;HPM_P2
2023/11/14 00:02:15;;;;;;;6.70;4.03;;;9.40;99.90;;;8.73;100.00;96987.25;4947891;28;20644;-76
2023/11/14 00:04:42;;;;;;;4.93;3.33;;;9.30;99.90;;;8.62;100.00;96980.75;4948642;28;20440;-77
2023/11/14 00:07:10;;;;;;;4.30;3.10;;;9.30;99.90;;;8.64;100.00;96989.44;4949166;29;20864;-79
2023/11/14 00:09:39;;;;;;;5.80;2.80;;;9.20;99.90;;;8.79;100.00;96990.88;4949458;28;20450;-77
2023/11/14 00:12:06;;;;;;;4.50;2.70;;;9.30;99.90;;;8.83;100.00;96999.31;4949628;28;20449;-75
2023/11/14 00:14:35;;;;;;;2.67;2.00;;;9.40;99.90;;;8.86;100.00;96970.06;4945501;28;21028;-75
2023/11/14 00:17:03;;;;;;;5.97;2.40;;;9.60;99.90;;;8.91;100.00;96985.53;4949832;28;20513;-75
2023/11/14 00:19:30;;;;;;;4.90;2.30;;;9.60;99.90;;;8.91;100.00;96999.00;4949839;29;20854;-75
2023/11/14 00:21:57;;;;;;;3.30;2.03;;;9.60;99.90;;;8.95;100.00;97004.75;4951017;28;20478;-76
2023/11/14 00:24:25;;;;;;;4.37;2.20;;;9.60;99.90;;;9.02;100.00;97013.56;4950511;28;20799;-74
2023/11/14 00:26:53;;;;;;;11.00;1.93;;;9.60;99.90;;;9.00;100.00;97012.97;4949760;28;20450;-75
2023/11/14 00:29:20;;;;;;;4.50;2.07;;;9.60;99.90;;;8.92;100.00;97006.03;4951237;28;20458;-75
2023/11/14 00:31:48;;;;;;;2.47;1.43;;;9.60;99.90;;;8.98;100.00;96993.53;4951013;28;20462;-77
2023/11/14 00:34:15;;;;;;;4.67;1.87;;;9.70;99.90;;;8.97;100.00;96998.09;4954510;28;20462;-74
2023/11/14 00:36:43;;;;;;;7.63;1.90;;;9.70;99.90;;;8.93;100.00;97005.78;4965698;28;20463;-74
2023/11/14 00:39:11;;;;;;;4.63;1.93;;;9.60;99.90;;;8.85;100.00;97010.69;4970051;29;20533;-75
2023/11/14 00:41:38;;;;;;;4.63;1.77;;;9.50;99.90;;;8.72;100.00;96999.06;4962881;29;20457;-74
2023/11/14 00:44:10;;;;;;;5.77;2.03;;;9.50;99.90;;;8.71;100.00;97031.59;4957671;28;20525;-75
2023/11/14 00:46:37;;;;;;;5.43;1.77;;;9.40;99.90;;;8.65;100.00;97022.56;4952012;29;20466;-75
2023/11/14 00:49:06;;;;;;;6.83;2.10;;;9.30;99.90;;;8.61;100.00;97035.66;4950884;28;20470;-75
2023/11/14 00:51:34;;;;;;;8.73;2.53;;;9.20;99.90;;;8.67;100.00;97047.38;4948161;28;20446;-76
2023/11/14 00:54:01;;;;;;;6.50;2.40;;;9.30;99.90;;;8.74;100.00;97042.75;4951131;28;20454;-76
2023/11/14 00:56:28;;;;;;;9.10;2.67;;;9.30;99.70;;;8.73;100.00;97034.88;4949318;28;20471;-77
2023/11/14 00:58:56;;;;;;;8.07;2.10;;;9.40;97.80;;;8.76;100.00;97029.88;4949008;29;20462;-78
2023/11/14 01:01:25;;;;;;;4.43;1.63;;;9.40;96.30;;;8.64;100.00;97027.13;4951214;28;20467;-78
2023/11/14 01:03:53;;;;;;;6.33;2.67;;;9.40;96.10;;;8.69;100.00;97039.09;4960128;28;20491;-75
2023/11/14 01:06:20;;;;;;;5.70;2.07;;;9.40;95.50;;;8.72;100.00;97044.84;4966674;28;20461;-74
2023/11/14 01:08:48;;;;;;;9.10;1.77;;;9.50;94.60;;;8.66;100.00;97061.91;4970368;28;20461;-75
2023/11/14 01:11:15;;;;;;;3.93;1.53;;;9.50;94.00;;;8.35;100.00;97066.38;4973306;28;20469;-76
2023/11/14 01:13:42;;;;;;;6.47;1.70;;;9.40;93.90;;;8.37;100.00;97075.06;4953178;28;20458;-78
2023/11/14 01:16:13;;;;;;;5.20;1.60;;;9.50;93.30;;;8.55;100.00;97070.72;4941091;28;20446;-77
2023/11/14 01:18:42;;;;;;;4.20;1.80;;;9.50;92.70;;;8.73;97.88;97062.66;4942114;28;20462;-77
2023/11/14 01:21:15;;;;;;;4.70;1.67;;;9.60;91.80;;;8.29;96.83;97002.69;4946890;29;20442;-77
2023/11/14 01:23:42;;;;;;;6.80;1.50;;;9.60;91.40;;;8.65;96.72;97054.88;4945659;28;20485;-78
2023/11/14 01:26:09;;;;;;;2.77;1.23;;;9.50;91.40;;;8.58;97.14;97076.50;4946673;28;20434;-78
2023/11/14 01:28:37;;;;;;;5.97;1.67;;;9.40;91.60;;;8.52;97.99;97076.56;4947948;28;20496;-77
2023/11/14 01:31:04;;;;;;;5.40;1.40;;;9.30;91.90;;;8.52;97.88;97081.97;4947279;29;20468;-78
2023/11/14 01:33:31;;;;;;;2.57;1.13;;;9.30;92.10;;;8.40;98.24;97074.59;4945947;28;20976;-79
2023/11/14 01:36:00;;;;;;;6.83;1.87;;;9.20;92.40;;;8.37;99.28;97077.75;4942072;28;20477;-79
2023/11/14 01:38:27;;;;;;;2.93;1.13;;;9.10;92.70;;;8.30;98.89;97080.50;4951980;28;20505;-76
2023/11/14 01:40:54;;;;;;;7.27;1.40;;;9.10;92.80;;;8.27;99.47;97096.28;4949216;28;20468;-74
2023/11/14 01:43:21;;;;;;;3.70;1.73;;;9.00;93.10;;;8.22;100.00;97095.06;4947923;28;20475;-78
2023/11/14 01:45:51;;;;;;;5.83;1.83;;;8.90;93.20;;;8.14;100.00;97086.47;4945266;28;20458;-77
2023/11/14 01:48:18;;;;;;;6.30;1.70;;;8.90;93.50;;;7.99;100.00;97081.47;4949612;28;20462;-79
2023/11/14 01:50:46;;;;;;;6.10;2.30;;;8.70;94.00;;;8.04;100.00;97087.00;4945427;28;20451;-78
2023/11/14 01:53:15;;;;;;;6.23;1.60;;;8.70;94.60;;;8.05;100.00;97091.31;4948791;28;20525;-76
2023/11/14 01:55:42;;;;;;;7.23;1.97;;;8.70;95.20;;;8.05;100.00;97088.63;4946040;28;20486;-75
2023/11/14 01:58:10;;;;;;;13.87;1.90;;;8.70;95.30;;;7.96;100.00;97079.19;4944093;29;20462;-75
2023/11/14 02:00:37;;;;;;;7.80;2.03;;;8.60;95.60;;;7.92;100.00;97078.84;4947753;28;20517;-76
2023/11/14 02:03:06;;;;;;;10.27;2.60;;;8.70;95.70;;;7.85;100.00;97095.03;4948502;28;20581;-76
2023/11/14 02:05:33;;;;;;;10.47;2.27;;;8.60;96.10;;;7.94;100.00;97082.94;4948689;28;20472;-77
2023/11/14 02:08:01;;;;;;;6.57;1.90;;;8.60;97.20;;;8.01;100.00;97095.50;4942885;28;20461;-78
2023/11/14 02:10:30;;;;;;;5.37;2.20;;;8.70;96.90;;;7.65;100.00;97044.09;4948374;28;20473;-77
2023/11/14 02:12:57;;;;;;;7.53;2.50;;;8.80;96.60;;;8.13;100.00;97112.56;4942354;28;20509;-76
2023/11/14 02:15:24;;;;;;;7.20;1.80;;;8.90;95.00;;;8.19;100.00;97103.59;4947462;28;20462;-75
2023/11/14 02:17:52;;;;;;;6.23;2.03;;;9.00;93.90;;;8.26;99.58;97108.91;4943769;29;20477;-77
2023/11/14 02:20:19;;;;;;;5.30;1.97;;;9.00;93.40;;;8.15;100.00;97113.16;4945903;28;20815;-79
2023/11/14 02:22:46;;;;;;;6.43;1.70;;;9.00;93.00;;;8.17;99.24;97116.47;4944628;28;20569;-77
2023/11/14 02:25:15;;;;;;;9.83;2.27;;;9.00;92.70;;;8.01;98.90;97093.63;4948249;28;20465;-78
2023/11/14 02:27:42;;;;;;;7.30;1.97;;;9.00;92.80;;;8.08;98.66;97117.78;4950024;28;20938;-78
2023/11/14 02:30:11;;;;;;;7.60;2.13;;;8.90;92.60;;;8.05;99.24;97121.75;4950173;28;20824;-78
2023/11/14 02:32:38;;;;;;;4.80;1.83;;;8.90;92.80;;;8.01;100.00;97120.53;4949105;29;20450;-80
2023/11/14 02:35:06;;;;;;;7.27;1.87;;;8.80;92.80;;;7.99;98.76;97111.06;4945598;29;20455;-76
2023/11/14 02:37:33;;;;;;;8.43;2.20;;;8.80;92.90;;;7.94;98.61;97117.91;4931504;28;20452;-77
2023/11/14 02:40:01;;;;;;;5.40;1.80;;;8.70;92.80;;;7.87;100.00;97135.97;4952309;28;21298;-77
2023/11/14 02:42:30;;;;;;;6.80;1.83;;;8.60;92.80;;;7.86;100.00;97145.09;4950141;28;20469;-78
2023/11/14 02:44:57;;;;;;;9.83;2.20;;;8.60;93.30;;;7.84;99.64;97125.66;4950552;28;20450;-77
2023/11/14 02:47:25;;;;;;;6.77;2.03;;;8.50;93.50;;;7.78;100.00;97123.81;4951565;28;20461;-76
2023/11/14 02:49:59;;;;;;;10.70;2.43;;;8.50;93.40;;;7.76;100.00;97132.13;4950362;28;20887;-77
2023/11/14 02:52:26;;;;;;;7.87;2.03;;;8.50;93.60;;;7.62;100.00;97127.91;4951491;28;20535;-77
2023/11/14 02:54:53;;;;;;;9.87;2.97;;;8.30;93.80;;;7.50;100.00;97117.00;4943952;28;20871;-76
2023/11/14 02:57:20;;;;;;;14.57;2.53;;;8.20;94.30;;;7.50;100.00;97133.97;4948133;28;20501;-78
2023/11/14 02:59:49;;;;;;;7.40;2.57;;;8.10;95.00;;;7.43;100.00;97130.50;4950721;29;20501;-77
2023/11/14 03:02:16;;;;;;;5.23;2.07;;;8.00;95.70;;;7.48;100.00;97137.91;4951013;28;20545;-77
2023/11/14 03:04:44;;;;;;;6.40;2.60;;;8.00;96.80;;;7.47;100.00;97133.56;4951270;28;20489;-76
2023/11/14 03:07:11;;;;;;;6.27;2.10;;;8.00;96.70;;;7.40;100.00;97135.50;4957458;28;20921;-77
2023/11/14 03:09:39;;;;;;;10.90;2.17;;;7.90;96.60;;;7.39;100.00;97123.09;4958280;28;20483;-74
2023/11/14 03:12:08;;;;;;;10.03;2.70;;;7.90;97.80;;;7.31;100.00;97141.09;4966095;28;20470;-74
2023/11/14 03:14:35;;;;;;;5.90;2.27;;;7.90;97.40;;;7.37;100.00;97131.38;4968537;28;20957;-75
2023/11/14 03:17:05;;;;;;;12.63;2.97;;;8.00;98.30;;;7.45;100.00;97119.53;4971807;28;20461;-76
2023/11/14 03:19:33;;;;;;;7.90;3.03;;;8.10;98.30;;;7.14;100.00;97079.03;4955563;28;20446;-75
2023/11/14 03:22:00;;;;;;;7.83;2.17;;;8.00;97.40;;;7.33;100.00;97106.78;4964450;28;20488;-76
2023/11/14 03:24:28;;;;;;;5.00;2.13;;;8.00;98.40;;;7.28;100.00;97114.69;4943650;28;20739;-76
2023/11/14 03:26:55;;;;;;;8.30;2.10;;;8.00;98.40;;;7.36;100.00;97111.75;4930596;29;21009;-77
2023/11/14 03:29:22;;;;;;;6.17;2.17;;;8.00;99.40;;;7.34;100.00;97127.22;4950370;28;21096;-76
2023/11/14 03:31:49;;;;;;;8.40;2.70;;;7.90;99.40;;;7.26;100.00;97124.81;4939109;29;20965;-77
2023/11/14 03:34:18;;;;;;;10.83;2.40;;;8.00;99.40;;;7.26;100.00;97119.44;4950183;28;20470;-76
2023/11/14 03:36:46;;;;;;;10.50;3.27;;;8.00;99.70;;;7.28;100.00;97132.66;4949118;28;20465;-75
2023/11/14 03:39:13;;;;;;;6.90;2.10;;;7.90;99.90;;;7.22;100.00;97129.00;4947667;28;20511;-77
2023/11/14 03:41:41;;;;;;;11.03;2.50;;;7.90;99.50;;;7.28;100.00;97141.53;4949552;29;21115;-76
2023/11/14 03:44:08;;;;;;;10.60;2.60;;;7.90;99.70;;;7.25;100.00;97147.34;4948300;29;20509;-73
2023/11/14 03:46:35;;;;;;;4.70;1.97;;;7.80;99.70;;;7.21;100.00;97138.09;4950797;28;20551;-76
2023/11/14 03:49:02;;;;;;;14.47;3.07;;;7.70;99.90;;;7.21;100.00;97152.34;4950214;28;20458;-74
2023/11/14 03:51:31;;;;;;;8.90;2.70;;;7.70;99.90;;;7.28;100.00;97168.41;4948706;29;20486;-75
2023/11/14 03:53:59;;;;;;;17.13;3.17;;;7.80;99.90;;;7.28;100.00;97181.00;4950678;28;20461;-75
2023/11/14 03:56:26;;;;;;;6.50;2.70;;;7.80;99.90;;;7.37;100.00;97185.94;4946899;28;21204;-76
2023/11/14 03:58:53;;;;;;;11.60;2.20;;;7.90;99.90;;;7.35;100.00;97173.75;4949547;28;21025;-76
2023/11/14 04:01:21;;;;;;;5.30;2.20;;;7.90;99.30;;;7.39;100.00;97184.91;4961955;28;20453;-76
2023/11/14 04:03:48;;;;;;;9.43;2.70;;;8.00;98.00;;;7.43;100.00;97178.06;4945984;29;20478;-76
2023/11/14 04:06:15;;;;;;;7.83;2.43;;;8.00;97.40;;;7.31;100.00;97184.09;4951949;28;20461;-74
2023/11/14 04:08:44;;;;;;;12.07;2.70;;;7.80;96.60;;;7.27;100.00;97182.88;4948527;28;20504;-73
2023/11/14 04:11:12;;;;;;;7.77;2.90;;;7.80;96.70;;;7.27;100.00;97182.88;4943861;29;20478;-75
2023/11/14 04:13:40;;;;;;;5.90;2.07;;;7.80;96.40;;;7.29;100.00;97186.19;4948172;28;20458;-75
2023/11/14 04:16:08;;;;;;;8.80;2.20;;;7.80;96.50;;;7.20;100.00;97176.72;4947482;29;21090;-73
2023/11/14 04:18:35;;;;;;;5.57;2.70;;;7.80;95.40;;;7.19;100.00;97175.06;4951448;28;21144;-77
2023/11/14 04:21:03;;;;;;;4.60;1.60;;;7.90;94.60;;;7.22;100.00;97188.91;4951189;28;20458;-74
2023/11/14 04:23:30;;;;;;;9.03;2.40;;;7.80;94.40;;;7.20;100.00;97198.19;4950903;28;20481;-73
2023/11/14 04:25:59;;;;;;;8.97;2.10;;;7.80;94.50;;;7.29;99.01;97206.88;4967807;28;20454;-74
2023/11/14 04:28:26;;;;;;;8.60;2.03;;;7.90;93.70;;;7.14;98.28;97196.38;4971136;28;20496;-72
2023/11/14 04:30:54;;;;;;;9.57;2.10;;;7.90;93.30;;;7.30;97.73;97206.63;4969467;28;20449;-75
2023/11/14 04:33:23;;;;;;;9.57;2.57;;;7.90;92.60;;;7.22;98.04;97214.97;4951577;28;20458;-76
2023/11/14 04:35:50;;;;;;;8.37;2.40;;;7.90;92.60;;;7.13;98.14;97218.91;4964555;28;20884;-73
2023/11/14 04:38:17;;;;;;;8.23;2.70;;;7.80;92.70;;;7.08;97.05;97225.75;4964836;28;20450;-74
2023/11/14 04:40:44;;;;;;;7.80;2.33;;;7.70;92.70;;;7.13;97.24;97237.72;4943831;28;20506;-75
2023/11/14 04:43:13;;;;;;;5.40;2.00;;;7.80;92.40;;;7.14;96.67;97252.81;4948448;29;20883;-74
2023/11/14 04:45:40;;;;;;;5.97;2.27;;;7.80;92.30;;;7.12;96.82;97249.50;4950869;28;20462;-75
2023/11/14 04:48:07;;;;;;;6.47;1.83;;;7.80;92.10;;;6.71;96.52;97201.28;4949344;29;20461;-76
2023/11/14 04:50:34;;;;;;;10.63;2.80;;;7.70;92.00;;;6.94;96.56;97229.53;4947903;28;20590;-76
2023/11/14 04:53:02;;;;;;;5.90;2.13;;;7.70;92.10;;;7.11;96.33;97251.34;4950562;28;20757;-75
2023/11/14 04:55:29;;;;;;;6.53;2.40;;;7.70;92.00;;;7.05;96.18;97249.53;4943386;28;20446;-76
2023/11/14 04:57:56;;;;;;;9.27;2.20;;;7.70;92.10;;;7.15;94.80;97257.13;4948034;28;20466;-74
2023/11/14 05:00:25;;;;;;;6.27;1.83;;;7.70;91.70;;;7.19;94.67;97255.66;4951024;28;20465;-75
2023/11/14 05:02:52;;;;;;;7.37;2.23;;;7.80;91.30;;;7.16;94.19;97259.63;4946269;28;20532;-74
2023/11/14 05:05:20;;;;;;;6.97;2.13;;;7.80;91.00;;;7.28;93.24;97250.88;4949731;28;20481;-76
2023/11/14 05:07:48;;;;;;;8.23;2.30;;;7.90;90.70;;;7.21;93.76;97253.63;4950276;28;20814;-73
2023/11/14 05:10:15;;;;;;;6.80;2.13;;;7.90;90.60;;;7.14;93.97;97250.13;4948405;28;20480;-72
2023/11/14 05:12:42;;;;;;;15.00;2.70;;;7.80;90.70;;;7.12;94.30;97252.19;4947150;28;20511;-74
2023/11/14 05:15:13;;;;;;;17.43;2.80;;;7.80;90.90;;;7.07;94.14;97245.59;4947655;29;20994;-76
2023/11/14 05:17:42;;;;;;;11.50;3.17;;;7.70;90.90;;;6.94;95.62;97259.88;4944749;28;20470;-76
2023/11/14 05:20:11;;;;;;;7.60;2.47;;;7.60;91.00;;;6.91;96.16;97244.19;4947851;29;20509;-75
2023/11/14 05:22:39;;;;;;;10.00;2.40;;;7.60;91.50;;;6.90;96.03;97255.97;4945306;29;20466;-75
2023/11/14 05:25:08;;;;;;;9.97;2.37;;;7.50;91.50;;;6.96;95.35;97254.31;4946720;28;20560;-76
2023/11/14 05:27:37;;;;;;;8.90;3.10;;;7.60;91.60;;;7.01;95.51;97259.06;4943907;28;20469;-76
2023/11/14 05:30:09;;;;;;;7.40;2.47;;;7.60;91.70;;;7.07;94.58;97253.66;4950358;28;20549;-75
2023/11/14 05:32:36;;;;;;;9.33;2.60;;;7.60;91.40;;;7.00;95.63;97252.03;4958713;28;20450;-77
2023/11/14 05:35:05;;;;;;;6.80;2.80;;;7.60;91.40;;;6.84;96.58;97239.88;4948292;28;20930;-75
2023/11/14 05:37:32;;;;;;;13.13;2.90;;;7.50;91.70;;;6.97;96.30;97255.13;4946936;29;20450;-75
2023/11/14 05:40:00;;;;;;;13.00;3.40;;;7.60;92.10;;;7.13;95.48;97252.00;4938989;28;20461;-75
2023/11/14 05:42:27;;;;;;;10.63;2.77;;;7.60;92.20;;;7.18;94.91;97252.16;4949430;28;20881;-77
2023/11/14 05:44:55;;;;;;;11.87;3.70;;;7.70;91.70;;;7.29;95.35;97247.19;4946047;28;20475;-76
2023/11/14 05:47:22;;;;;;;14.43;2.67;;;7.80;91.80;;;7.33;94.28;97259.94;4948594;29;20902;-77
2023/11/14 05:49:49;;;;;;;11.43;2.50;;;7.90;91.60;;;7.50;93.13;97256.78;4949821;28;20506;-74
2023/11/14 05:52:18;;;;;;;9.83;2.70;;;8.10;91.00;;;7.58;93.36;97251.16;4948131;29;20516;-75
2023/11/14 05:54:45;;;;;;;13.63;2.67;;;8.20;90.90;;;7.48;94.29;97230.13;4946289;28;20940;-72
2023/11/14 05:57:12;;;;;;;11.20;3.50;;;8.20;91.20;;;7.78;91.73;97252.91;4945295;28;20792;-71
2023/11/14 05:59:39;;;;;;;11.43;2.90;;;8.40;90.60;;;7.89;91.44;97257.59;4944091;28;20457;-72
2023/11/14 06:02:09;;;;;;;11.23;2.80;;;8.50;90.30;;;7.96;90.86;97267.47;4954732;28;20453;-71
2023/11/14 06:04:37;;;;;;;11.30;2.60;;;8.60;89.90;;;7.98;90.82;97270.81;4957149;28;20471;-73
2023/11/14 06:07:04;;;;;;;12.77;3.13;;;8.60;90.00;;;8.09;90.85;97264.72;4951441;28;20508;-73
2023/11/14 06:09:33;;;;;;;9.90;2.90;;;8.70;89.80;;;8.17;91.10;97280.59;4943445;28;20458;-71
2023/11/14 06:12:00;;;;;;;19.13;3.33;;;8.80;90.00;;;8.14;91.42;97275.66;4952572;28;20450;-72
2023/11/14 06:14:27;;;;;;;15.43;3.57;;;8.80;90.00;;;8.25;90.58;97297.50;4941144;29;21106;-70
2023/11/14 06:16:54;;;;;;;11.03;3.10;;;8.80;90.20;;;8.27;90.84;97285.50;4946220;29;20449;-70
2023/11/14 06:19:22;;;;;;;13.77;3.33;;;8.90;90.00;;;8.35;90.91;97276.31;4945068;29;20859;-71
2023/11/14 06:21:49;;;;;;;9.53;2.90;;;9.00;90.00;;;8.43;91.10;97289.53;4943221;28;20529;-71
2023/11/14 06:24:16;;;;;;;12.30;3.13;;;9.00;90.10;;;8.54;91.43;97295.25;4942120;28;20839;-70
2023/11/14 06:26:45;;;;;;;13.23;2.53;;;9.10;90.20;;;8.40;91.70;97271.09;4960067;28;20458;-71
2023/11/14 06:29:12;;;;;;;12.07;3.43;;;9.00;90.30;;;8.42;93.68;97271.72;4940875;28;20458;-71
2023/11/14 06:31:43;;;;;;;32.07;3.80;;;9.00;90.40;;;8.48;93.68;97286.16;4947680;28;20462;-73
2023/11/14 06:34:12;;;;;;;9.80;2.90;;;9.00;90.60;;;8.45;93.65;97278.50;4946532;28;20469;-70
2023/11/14 06:36:40;;;;;;;11.90;3.40;;;9.10;90.90;;;8.62;94.15;97292.28;4945038;28;20507;-71
2023/11/14 06:39:07;;;;;;;16.60;2.93;;;9.10;91.20;;;8.53;93.06;97282.84;4943420;28;20939;-70
2023/11/14 06:41:35;;;;;;;10.90;3.20;;;9.10;90.70;;;8.57;91.32;97292.09;4945549;28;20457;-71
2023/11/14 06:44:04;;;;;;;8.90;2.63;;;9.20;90.50;;;8.59;92.02;97300.81;4946192;28;20469;-72
2023/11/14 06:46:33;;;;;;;11.50;3.20;;;9.20;90.60;;;8.65;93.50;97313.38;4942543;28;20513;-73
2023/11/14 06:49:01;;;;;;;15.13;4.30;;;9.20;90.90;;;8.63;92.63;97305.53;4944913;29;20937;-71
2023/11/14 06:51:28;;;;;;;10.30;2.87;;;9.20;91.10;;;8.70;92.56;97316.22;4942090;29;20521;-73
2023/11/14 06:53:55;;;;;;;7.57;2.60;;;9.30;90.80;;;8.49;92.70;97280.56;4947954;28;20466;-77
2023/11/14 06:56:22;;;;;;;12.10;3.80;;;9.30;90.80;;;8.83;91.89;97314.47;4943064;28;20458;-71
2023/11/14 06:58:50;;;;;;;11.30;4.10;;;9.40;90.70;;;8.78;92.05;97302.50;4942141;29;20514;-73
2023/11/14 07:01:18;;;;;;;7.13;2.70;;;9.40;90.40;;;8.95;91.83;97296.53;4944421;28;20461;-71
2023/11/14 07:03:45;;;;;;;8.53;3.30;;;9.50;90.60;;;8.75;92.62;97284.09;4941341;28;20466;-71
2023/11/14 07:06:13;;;;;;;9.80;3.57;;;9.50;90.60;;;9.00;92.57;97296.69;4937212;28;20454;-70
2023/11/14 07:08:41;;;;;;;11.33;3.17;;;9.60;90.80;;;8.94;91.63;97313.75;4946651;28;20458;-71
2023/11/14 07:11:09;;;;;;;9.83;3.10;;;9.60;90.50;;;8.89;92.49;97330.56;4945847;28;20522;-70
2023/11/14 07:13:36;;;;;;;7.47;2.87;;;9.60;90.60;;;8.94;91.51;97332.59;4948748;28;21247;-70
2023/11/14 07:16:04;;;;;;;13.77;3.37;;;9.60;90.50;;;9.04;91.38;97329.41;4942554;28;20509;-71
2023/11/14 07:18:33;;;;;;;11.03;3.43;;;9.70;90.50;;;9.13;91.97;97340.72;4941792;28;20466;-72
2023/11/14 07:21:01;;;;;;;8.13;3.40;;;9.80;90.40;;;9.26;91.17;97337.09;4936998;28;20442;-71
2023/11/14 07:23:28;;;;;;;15.33;3.97;;;9.90;90.20;;;9.30;90.41;97327.50;4940883;28;20462;-72
2023/11/14 07:25:55;;;;;;;13.33;4.57;;;10.00;88.90;;;9.33;90.87;97314.41;4962783;28;20564;-70
2023/11/14 07:28:22;;;;;;;9.23;3.77;;;10.00;89.10;;;9.32;90.18;97309.22;4947838;29;20520;-71
2023/11/14 07:30:51;;;;;;;14.57;3.50;;;10.00;88.60;;;9.50;89.43;97313.78;4949601;28;20461;-71
2023/11/14 07:33:18;;;;;;;21.33;4.80;;;10.10;88.60;;;9.55;88.22;97324.72;4945189;28;20959;-71
2023/11/14 07:35:47;;;;;;;9.13;3.10;;;10.20;88.10;;;9.60;88.96;97334.81;4948104;29;20454;-72
2023/11/14 07:38:14;;;;;;;14.97;3.43;;;10.30;88.10;;;9.67;87.78;97337.44;4950233;28;20470;-71
2023/11/14 07:40:41;;;;;;;10.43;3.43;;;10.30;87.60;;;9.60;88.49;97342.91;4942846;28;21011;-71
2023/11/14 07:43:09;;;;;;;9.10;3.63;;;10.30;87.60;;;9.76;87.99;97360.34;4945534;28;20475;-72
2023/11/14 07:45:37;;;;;;;6.83;3.00;;;10.40;87.80;;;9.80;88.15;97383.16;4949384;28;20477;-72
2023/11/14 07:48:06;;;;;;;12.43;3.57;;;10.40;87.40;;;9.75;88.10;97385.69;4945372;28;20457;-71
2023/11/14 07:50:33;;;;;;;7.47;2.80;;;10.40;87.40;;;9.78;87.79;97390.63;4952816;28;20482;-71
2023/11/14 07:53:02;;;;;;;6.80;2.50;;;10.40;87.40;;;9.90;86.26;97393.41;4949438;28;20564;-71
2023/11/14 07:55:29;;;;;;;7.37;2.97;;;10.50;87.30;;;9.84;87.33;97411.31;4944515;28;20481;-70
2023/11/14 07:57:57;;;;;;;7.27;2.70;;;10.50;87.10;;;9.94;86.77;97388.38;4944504;28;20897;-73
2023/11/14 08:00:25;;;;;;;7.70;3.03;;;10.50;86.90;;;9.97;86.43;97364.44;4949826;28;20462;-71
2023/11/14 08:02:52;;;;;;;9.60;3.47;;;10.60;87.00;;;10.03;85.60;97346.53;4947722;29;20461;-72
2023/11/14 08:05:19;;;;;;;7.47;3.20;;;10.70;86.60;;;10.19;85.74;97359.38;4947610;29;20489;-71
2023/11/14 08:07:46;;;;;;;10.67;3.73;;;10.80;86.70;;;10.29;84.35;97372.31;4949376;28;20476;-71
2023/11/14 08:10:16;;;;;;;12.40;2.77;;;10.90;86.40;;;10.42;82.91;97376.75;4951828;29;20458;-80
2023/11/14 08:12:44;;;;;;;8.83;3.40;;;11.00;85.60;;;10.44;83.21;97368.41;4948199;28;20894;-68
2023/11/14 08:15:11;;;;;;;5.60;2.53;;;11.10;85.60;;;10.65;82.58;97355.44;4950021;28;20963;-67
2023/11/14 08:17:38;;;;;;;11.83;4.13;;;11.20;85.30;;;10.68;81.87;97336.06;4950931;28;20486;-67
2023/11/14 08:20:09;;;;;;;16.57;4.00;;;11.30;84.80;;;10.73;80.71;97341.56;4951028;28;20467;-69
2023/11/14 08:22:37;;;;;;;12.80;2.77;;;11.30;84.40;;;10.86;80.60;97337.84;4947343;29;20450;-69
2023/11/14 08:25:05;;;;;;;9.60;2.77;;;11.40;84.60;;;10.63;81.20;97336.75;4957676;28;20470;-69
2023/11/14 08:27:34;;;;;;;6.53;2.50;;;11.30;84.20;;;10.51;82.85;97361.03;4948947;28;20457;-68
2023/11/14 08:30:01;;;;;;;13.23;2.53;;;11.20;84.60;;;10.76;81.32;97371.66;4949781;28;20557;-69
2023/11/14 08:32:30;;;;;;;5.10;1.93;;;11.30;84.40;;;10.75;80.90;97388.09;4949186;28;21130;-69
2023/11/14 08:34:58;;;;;;;12.17;2.80;;;11.30;84.00;;;10.73;80.99;97387.50;4944494;29;20537;-69
2023/11/14 08:37:26;;;;;;;7.47;2.60;;;11.40;84.00;;;10.91;79.92;97394.72;4948693;28;20533;-69
2023/11/14 08:39:53;;;;;;;8.03;2.50;;;11.50;83.80;;;11.02;78.78;97412.00;4942755;28;20469;-69
2023/11/14 08:42:20;;;;;;;9.27;2.47;;;11.60;83.40;;;11.01;79.09;97418.47;4938643;28;20503;-70
2023/11/14 08:44:49;;;;;;;11.80;3.53;;;11.70;83.30;;;11.06;79.30;97399.66;4954626;28;20484;-68
2023/11/14 08:47:16;;;;;;;9.93;2.40;;;11.70;83.40;;;11.16;79.28;97375.56;4948415;28;20458;-68
2023/11/14 08:49:43;;;;;;;8.60;2.77;;;11.80;83.40;;;11.14;78.40;97406.59;4944189;28;20458;-68
2023/11/14 08:52:11;;;;;;;11.10;2.53;;;11.70;82.90;;;10.86;78.91;97389.19;4962664;28;20493;-68
2023/11/14 08:54:38;;;;;;;10.00;2.33;;;11.70;82.60;;;11.21;77.42;97407.31;4948532;28;20528;-69
2023/11/14 08:57:06;;;;;;;6.10;2.47;;;11.80;82.50;;;10.87;77.35;97383.53;4941284;28;20533;-70
2023/11/14 08:59:33;;;;;;;12.20;3.13;;;11.90;82.30;;;11.07;77.53;97439.16;4947880;28;20474;-68
2023/11/14 09:02:01;;;;;;;9.27;2.07;;;11.80;82.00;;;11.14;78.17;97426.34;4939465;28;20465;-69
2023/11/14 09:04:30;;;;;;;13.07;4.63;;;11.80;82.50;;;11.20;77.70;97430.81;4949582;28;20474;-69
2023/11/14 09:06:57;;;;;;;7.80;3.20;;;11.80;82.30;;;11.15;78.23;97435.31;4955531;28;20468;-70
2023/11/14 09:09:24;;;;;;;12.53;2.30;;;11.80;82.30;;;11.25;78.25;97437.41;4948127;28;20474;-69
2023/11/14 09:11:52;;;;;;;10.10;3.20;;;11.80;82.60;;;11.16;78.00;97409.91;4944354;29;20566;-70
2023/11/14 09:14:20;;;;;;;13.50;3.00;;;11.80;82.40;;;11.25;76.72;97403.06;4940310;29;20942;-70
2023/11/14 09:16:47;;;;;;;5.27;2.57;;;11.80;82.00;;;11.23;76.75;97397.09;4946993;28;20957;-68
2023/11/14 09:19:16;;;;;;;5.90;2.60;;;11.80;81.60;;;11.16;77.11;97389.09;4945362;28;20829;-70
2023/11/14 09:21:43;;;;;;;9.23;2.03;;;11.80;81.70;;;11.21;77.26;97385.69;4940514;28;20463;-68
2023/11/14 09:24:10;;;;;;;10.20;2.60;;;11.80;81.80;;;11.22;76.70;97376.50;4947188;29;20473;-70
2023/11/14 09:26:40;;;;;;;10.23;2.70;;;11.90;81.60;;;11.28;76.58;97370.16;4938599;29;20478;-69
2023/11/14 09:29:07;;;;;;;10.30;3.53;;;11.90;81.50;;;11.39;76.02;97360.41;4946734;29;21013;-68
2023/11/14 09:31:34;;;;;;;7.80;2.07;;;12.00;81.30;;;11.21;75.70;97355.94;4948725;28;20458;-69
2023/11/14 09:34:01;;;;;;;6.50;1.90;;;12.00;80.90;;;11.38;75.61;97368.75;4948700;28;20451;-69
2023/11/14 09:36:33;;;;;;;8.70;2.20;;;12.00;81.10;;;11.53;75.35;97377.19;4946374;28;20446;-70
2023/11/14 09:39:00;;;;;;;6.37;2.10;;;12.10;81.00;;;11.39;75.30;97378.50;4944276;28;20538;-69
2023/11/14 09:41:27;;;;;;;10.03;2.67;;;12.10;80.70;;;11.23;76.76;97377.34;4945912;28;20464;-68
2023/11/14 09:43:55;;;;;;;10.43;2.50;;;12.00;81.10;;;11.39;75.53;97381.22;4945055;29;20463;-70
2023/11/14 09:46:22;;;;;;;5.77;2.17;;;12.00;81.00;;;11.50;74.74;97374.97;4946268;28;20470;-70
2023/11/14 09:48:50;;;;;;;7.10;1.80;;;12.10;80.60;;;11.62;73.99;97374.94;4947903;28;20465;-68
2023/11/14 09:51:19;;;;;;;5.93;2.00;;;12.20;80.20;;;11.91;73.03;97383.13;4944744;28;20979;-68
2023/11/14 09:53:49;;;;;;;6.03;2.27;;;12.40;80.10;;;11.97;73.58;97381.34;4945101;28;20872;-68
2023/11/14 09:56:18;;;;;;;5.90;2.57;;;12.40;80.30;;;11.92;73.24;97378.53;4961777;28;20446;-69
2023/11/14 09:58:45;;;;;;;8.40;2.53;;;12.50;80.20;;;12.06;73.39;97389.94;4948116;29;20454;-69
2023/11/14 10:01:13;;;;;;;5.10;1.73;;;12.50;80.30;;;11.98;72.92;97388.41;4962686;28;20454;-68
2023/11/14 10:03:41;;;;;;;7.60;2.20;;;12.50;80.10;;;12.03;72.17;97391.22;4948155;28;20458;-68
2023/11/14 10:06:09;;;;;;;6.77;1.93;;;12.50;79.50;;;11.77;73.35;97377.97;4946070;28;20478;-68
2023/11/14 10:08:37;;;;;;;4.73;2.90;;;12.50;79.80;;;11.96;72.45;97374.28;4944547;28;20838;-68
2023/11/14 10:11:09;;;;;;;5.67;1.90;;;12.50;79.50;;;12.10;71.74;97378.38;4944082;29;20541;-69
2023/11/14 10:13:37;;;;;;;5.10;2.00;;;12.60;79.10;;;12.29;71.29;97372.78;4943137;28;20593;-68
2023/11/14 10:16:16;;;;;;;9.07;2.10;;;12.80;79.10;;;12.50;69.93;97356.88;4944820;28;20455;-68
2023/11/14 10:18:44;;;;;;;6.93;2.33;;;13.00;78.40;;;12.67;69.19;97351.50;4945788;28;20947;-68
2023/11/14 10:21:25;;;;;;;8.30;2.23;;;13.20;78.10;;;12.67;68.27;97341.50;4944690;29;20930;-67
2023/11/14 10:23:54;;;;;;;7.20;1.70;;;13.30;77.30;;;12.51;69.41;97344.97;4946226;29;20870;-68
2023/11/14 10:26:23;;;;;;;6.53;1.97;;;13.10;77.50;;;12.40;68.65;97369.19;4942897;28;20490;-69
2023/11/14 10:28:55;;;;;;;7.50;1.60;;;13.10;77.00;;;12.38;68.72;97387.59;4944789;28;20463;-67